Time;durP1;ratioP1;P1;durP2;ratioP2;P2;SDS_P1;SDS_P2;PMS_P1;PMS_P2;Temp;Humidity;BMP_temperature;BMP_pressure;BME280_temperature;BME280_humidity;BME280_pressure;Samples;Min_cycle;Max_cycle;Signal;HPM_P1;HPM_P2
2021/06/02 00:01:12;;;;;;;3.45;2.50;;;;;;;21.10;24.22;101055.34;3574092;40;20053;-72
2021/06/02 00:03:40;;;;;;;4.85;2.90;;;;;;;21.04;24.21;101052.28;3578389;40;20049;-71
2021/06/02 00:06:10;;;;;;;5.00;3.10;;;;;;;21.04;23.53;101055.06;3578652;40;20056;-73
2021/06/02 00:08:57;;;;;;;4.55;2.53;;;;;;;21.01;24.18;101051.81;3569686;40;20040;-71
2021/06/02 00:11:25;;;;;;;4.47;2.67;;;;;;;20.97;23.73;101058.84;3579124;40;20045;-71
2021/06/02 00:13:55;;;;;;;4.90;2.97;;;;;;;20.95;24.18;101059.03;3577853;40;20139;-71
2021/06/02 00:16:24;;;;;;;4.07;2.80;;;;;;;20.94;23.84;101042.53;3578062;40;20040;-71
2021/06/02 00:18:52;;;;;;;5.53;2.92;;;;;;;20.89;24.22;101054.25;3578627;40;20174;-71
2021/06/02 00:21:20;;;;;;;4.38;2.83;;;;;;;20.85;24.16;101044.53;3580908;40;20052;-71
2021/06/02 00:23:48;;;;;;;4.35;2.75;;;;;;;20.83;24.30;101049.41;3579679;40;20052;-71
2021/06/02 00:26:21;;;;;;;4.25;2.78;;;;;;;20.83;24.64;101049.41;3577963;40;20045;-71
2021/06/02 00:28:49;;;;;;;4.55;2.90;;;;;;;20.77;24.64;101049.34;3577476;40;20072;-71
2021/06/02 00:31:44;;;;;;;4.32;2.70;;;;;;;20.72;24.30;101041.59;3578657;40;20049;-70
2021/06/02 00:34:13;;;;;;;4.15;2.80;;;;;;;20.69;24.37;101040.06;3577576;40;20070;-71
2021/06/02 00:36:42;;;;;;;3.92;2.65;;;;;;;20.67;24.40;101042.16;3579029;40;20052;-70
2021/06/02 00:39:12;;;;;;;4.15;2.58;;;;;;;20.64;24.81;101042.56;3577332;40;20134;-70
2021/06/02 00:41:44;;;;;;;4.38;2.67;;;;;;;20.63;24.76;101046.41;3578113;40;20068;-70
2021/06/02 00:44:15;;;;;;;3.75;2.33;;;;;;;20.58;25.02;101048.06;3579944;40;20037;-70
2021/06/02 00:46:44;;;;;;;4.35;2.70;;;;;;;20.55;25.00;101040.97;3579647;40;20077;-70
2021/06/02 00:49:15;;;;;;;3.97;2.45;;;;;;;20.54;25.03;101039.22;3579029;40;20060;-70
2021/06/02 00:51:46;;;;;;;3.78;2.67;;;;;;;20.49;25.29;101044.53;3579502;40;20391;-70
2021/06/02 00:54:17;;;;;;;4.47;3.28;;;;;;;20.45;25.10;101036.75;3578384;40;20049;-71
2021/06/02 00:56:50;;;;;;;3.78;2.58;;;;;;;20.46;25.20;101050.44;3579167;40;20067;-70
2021/06/02 00:59:20;;;;;;;5.28;2.78;;;;;;;20.41;25.15;101044.63;3576353;40;20295;-71
2021/06/02 01:01:48;;;;;;;4.20;2.63;;;;;;;20.37;24.89;101042.41;3579261;40;20060;-70
2021/06/02 01:04:16;;;;;;;4.75;2.90;;;;;;;20.34;24.93;101031.69;3574338;40;20044;-70
2021/06/02 01:06:45;;;;;;;3.75;2.70;;;;;;;20.31;25.23;101033.78;3579938;40;20081;-71
2021/06/02 01:09:14;;;;;;;3.35;2.30;;;;;;;20.28;25.29;101030.53;3585181;39;20053;-70
2021/06/02 01:11:43;;;;;;;4.55;2.80;;;;;;;20.24;25.15;101027.28;3578119;40;20056;-70
2021/06/02 01:14:14;;;;;;;4.00;2.60;;;;;;;20.23;25.61;101025.56;3578506;40;20056;-70
2021/06/02 01:16:43;;;;;;;4.60;3.05;;;;;;;20.20;25.49;101033.38;3578303;40;20141;-71
2021/06/02 01:19:12;;;;;;;4.20;2.80;;;;;;;20.16;25.89;101027.34;3578695;40;20127;-71
2021/06/02 01:21:52;;;;;;;3.58;2.40;;;;;;;20.17;26.42;101025.44;3576178;40;20041;-71
2021/06/02 01:24:20;;;;;;;3.65;2.47;;;;;;;20.10;25.93;101036.41;3577295;40;20065;-72
2021/06/02 01:27:10;;;;;;;3.88;2.80;;;;;;;20.06;26.45;101035.09;3580681;40;20145;-71
2021/06/02 01:29:51;;;;;;;4.47;2.60;;;;;;;19.99;25.70;101033.28;3577165;40;20076;-70
2021/06/02 01:33:16;;;;;;;3.45;2.47;;;;;;;19.94;26.48;101036.59;3577804;40;20315;-70
2021/06/02 01:36:06;;;;;;;4.70;2.78;;;;;;;19.87;25.94;101039.28;3576054;40;20391;-70
2021/06/02 01:39:29;;;;;;;3.97;2.65;;;;;;;19.83;26.60;101039.84;3576987;40;20055;-70
2021/06/02 01:42:19;;;;;;;4.97;2.70;;;;;;;19.81;27.18;101042.81;3566862;40;20057;-71
2021/06/02 01:45:35;;;;;;;4.22;2.75;;;;;;;19.75;27.01;101048.25;3577171;40;20033;-70
2021/06/02 01:48:32;;;;;;;3.92;2.40;;;;;;;19.69;26.91;101047.06;3570861;40;20037;-70
2021/06/02 01:51:34;;;;;;;4.28;2.72;;;;;;;19.65;27.03;101039.31;3576213;40;20049;-71
2021/06/02 01:55:05;;;;;;;4.55;2.47;;;;;;;19.55;26.71;101039.59;3577627;40;20402;-71
2021/06/02 01:58:26;;;;;;;4.35;2.65;;;;;;;19.51;27.13;101041.84;3578019;40;20048;-70
2021/06/02 02:01:39;;;;;;;3.33;2.70;;;;;;;19.46;26.42;101041.53;3574025;40;20087;-70
2021/06/02 02:04:52;;;;;;;4.40;2.67;;;;;;;19.43;26.72;101038.28;3577901;40;20053;-70
2021/06/02 02:08:10;;;;;;;3.92;2.67;;;;;;;19.40;27.05;101041.41;3577963;40;20051;-71
2021/06/02 02:11:06;;;;;;;4.13;2.75;;;;;;;19.37;27.00;101028.78;3576716;40;20487;-70
2021/06/02 02:14:27;;;;;;;3.85;2.60;;;;;;;19.32;26.75;101020.16;3582783;40;20048;-70
2021/06/02 02:17:39;;;;;;;4.28;2.65;;;;;;;19.26;27.25;101031.13;3557459;40;20166;-70
2021/06/02 02:20:33;;;;;;;3.72;2.45;;;;;;;19.24;26.95;101023.00;3574474;40;20380;-70
2021/06/02 02:23:26;;;;;;;4.05;2.42;;;;;;;19.20;26.86;101024.41;3570808;40;20209;-70
2021/06/02 02:26:24;;;;;;;3.95;2.60;;;;;;;19.14;27.63;101023.25;3575122;40;20048;-70
2021/06/02 02:29:22;;;;;;;3.80;2.47;;;;;;;19.11;27.21;101020.81;3578476;40;20457;-70
2021/06/02 02:32:22;;;;;;;4.38;2.60;;;;;;;19.07;27.69;101018.63;3576835;40;20053;-70
2021/06/02 02:35:21;;;;;;;3.90;2.53;;;;;;;19.04;26.92;101017.06;3576755;40;20044;-70
2021/06/02 02:38:25;;;;;;;4.10;2.67;;;;;;;19.00;26.98;101017.63;3574713;40;20041;-71
2021/06/02 02:41:29;;;;;;;3.65;2.45;;;;;;;18.97;27.69;101027.16;3573843;40;20138;-71
2021/06/02 02:44:34;;;;;;;4.90;2.72;;;;;;;18.93;27.24;101020.28;3579444;40;20291;-70
2021/06/02 02:47:32;;;;;;;3.63;2.55;;;;;;;18.92;27.29;101029.63;3573132;40;20396;-71
2021/06/02 02:50:28;;;;;;;3.42;2.15;;;;;;;18.91;27.49;101030.69;3568331;40;20056;-71
2021/06/02 02:53:24;;;;;;;4.15;2.60;;;;;;;18.90;26.85;101036.41;3574805;40;20059;-71
2021/06/02 02:56:17;;;;;;;3.85;2.65;;;;;;;18.87;27.73;101037.63;3574174;40;20051;-70
2021/06/02 02:59:11;;;;;;;3.65;2.22;;;;;;;18.81;27.30;101035.59;3576691;40;20056;-70
2021/06/02 03:02:03;;;;;;;4.72;2.67;;;;;;;18.82;27.57;101040.09;3578762;40;20414;-70
2021/06/02 03:04:56;;;;;;;3.70;2.42;;;;;;;18.78;27.40;101039.56;3578434;40;20347;-71
2021/06/02 03:07:49;;;;;;;3.33;2.10;;;;;;;18.74;27.52;101042.88;3576804;40;20089;-71
2021/06/02 03:10:43;;;;;;;3.83;2.15;;;;;;;18.73;26.98;101044.78;3575761;40;20376;-71
2021/06/02 03:13:22;;;;;;;3.42;2.33;;;;;;;18.72;27.18;101045.81;3573455;40;20325;-71
2021/06/02 03:15:51;;;;;;;4.60;2.55;;;;;;;18.67;26.83;101039.97;3581340;40;20060;-71
2021/06/02 03:18:32;;;;;;;3.85;2.88;;;;;;;18.69;27.20;101043.41;3577673;40;20440;-71
2021/06/02 03:21:12;;;;;;;3.88;2.50;;;;;;;18.66;27.58;101043.78;3571542;40;20402;-71
2021/06/02 03:23:52;;;;;;;3.83;2.50;;;;;;;18.64;27.63;101043.09;3575346;40;20056;-71
2021/06/02 03:26:26;;;;;;;3.80;2.50;;;;;;;18.61;26.97;101039.81;3578101;40;20088;-71
2021/06/02 03:29:05;;;;;;;3.72;2.35;;;;;;;18.60;27.94;101040.88;3576042;40;20114;-71
2021/06/02 03:31:47;;;;;;;3.65;2.38;;;;;;;18.58;27.52;101038.28;3575961;40;20049;-71
2021/06/02 03:34:22;;;;;;;3.78;2.47;;;;;;;18.57;27.47;101052.31;3574760;40;20052;-71
2021/06/02 03:37:06;;;;;;;4.43;2.60;;;;;;;18.53;27.78;101048.16;3579820;40;20083;-70
2021/06/02 03:39:49;;;;;;;3.10;2.30;;;;;;;18.47;27.90;101041.44;3581063;40;20048;-71
2021/06/02 03:42:27;;;;;;;5.05;2.67;;;;;;;18.42;27.80;101053.06;3577367;40;20077;-71
2021/06/02 03:45:19;;;;;;;3.97;2.58;;;;;;;18.38;27.79;101048.91;3578281;40;20037;-72
2021/06/02 03:47:59;;;;;;;3.78;2.50;;;;;;;18.33;28.01;101058.81;3576193;40;20057;-71
2021/06/02 03:50:39;;;;;;;5.63;2.95;;;;;;;18.28;28.47;101053.78;3573605;40;20135;-71
2021/06/02 03:53:24;;;;;;;3.92;2.40;;;;;;;18.24;28.47;101049.66;3577850;40;20049;-71
2021/06/02 03:56:02;;;;;;;3.80;2.53;;;;;;;18.19;28.38;101059.56;3576709;40;20053;-70
2021/06/02 03:58:58;;;;;;;3.33;2.35;;;;;;;18.14;28.28;101070.28;3580485;40;20413;-71
2021/06/02 04:01:52;;;;;;;4.72;2.38;;;;;;;18.13;28.38;101060.25;3576793;40;20053;-70
2021/06/02 04:04:47;;;;;;;4.63;2.53;;;;;;;18.08;28.31;101066.31;3580932;40;20056;-70
2021/06/02 04:07:43;;;;;;;3.80;2.30;;;;;;;18.04;28.70;101067.69;3572786;40;20058;-70
2021/06/02 04:10:44;;;;;;;4.13;2.30;;;;;;;18.00;28.33;101067.19;3575724;40;20318;-68
2021/06/02 04:13:55;;;;;;;3.35;2.20;;;;;;;17.94;28.77;101072.56;3581690;40;20397;-68
2021/06/02 04:16:42;;;;;;;5.10;2.50;;;;;;;17.91;28.02;101067.34;3574007;40;20053;-68
2021/06/02 04:19:32;;;;;;;3.42;2.47;;;;;;;17.92;28.48;101061.66;3576188;40;20068;-68
2021/06/02 04:22:21;;;;;;;5.18;2.70;;;;;;;17.91;28.39;101062.69;3575773;40;20072;-67
2021/06/02 04:25:10;;;;;;;5.00;2.58;;;;;;;17.91;28.84;101059.06;3577913;40;20055;-69
2021/06/02 04:28:00;;;;;;;3.42;2.40;;;;;;;17.93;28.98;101055.09;3561070;40;20495;-68
2021/06/02 04:30:49;;;;;;;3.55;2.40;;;;;;;17.93;28.94;101057.84;3572565;40;20037;-69
2021/06/02 04:33:32;;;;;;;4.32;2.58;;;;;;;17.94;29.35;101054.03;3577290;40;20052;-69
2021/06/02 04:36:23;;;;;;;4.43;2.90;;;;;;;17.94;29.04;101055.94;3575361;40;20052;-69
2021/06/02 04:39:12;;;;;;;5.07;2.72;;;;;;;17.96;29.14;101053.84;3576486;40;20037;-69
2021/06/02 04:42:01;;;;;;;3.33;2.30;;;;;;;17.99;28.99;101050.75;3577272;40;20060;-69
2021/06/02 04:44:50;;;;;;;4.03;2.45;;;;;;;18.00;28.61;101042.25;3576776;40;20033;-69
2021/06/02 04:47:40;;;;;;;3.65;2.50;;;;;;;18.04;28.75;101053.84;3574687;40;20049;-69
2021/06/02 04:50:33;;;;;;;3.72;2.55;;;;;;;18.07;28.70;101053.53;3576086;40;20422;-69
2021/06/02 04:53:52;;;;;;;3.75;2.60;;;;;;;18.09;28.88;101058.88;3574874;40;20045;-69
2021/06/02 04:57:21;;;;;;;3.67;2.45;;;;;;;18.13;29.48;101058.34;3579864;40;20362;-69
2021/06/02 05:00:32;;;;;;;3.50;2.40;;;;;;;18.16;28.81;101066.31;3563815;40;20053;-69
2021/06/02 05:03:54;;;;;;;5.45;2.50;;;;;;;18.19;29.03;101060.44;3575490;40;20072;-68
2021/06/02 05:07:24;;;;;;;4.57;2.55;;;;;;;18.22;28.91;101056.41;3575657;40;20150;-68
2021/06/02 05:11:02;;;;;;;4.28;2.80;;;;;;;18.25;29.21;101056.06;3580773;40;20037;-68
2021/06/02 05:14:31;;;;;;;4.43;2.90;;;;;;;18.40;29.39;101049.59;3575323;40;20049;-68
2021/06/02 05:17:43;;;;;;;5.00;2.72;;;;;;;18.59;29.86;101053.00;3578745;40;20051;-68
2021/06/02 05:24:54;;;;;;;3.30;2.28;;;;;;;18.92;28.88;101060.13;3576646;40;20055;-68
2021/06/02 05:28:08;;;;;;;4.47;2.40;;;;;;;19.20;28.61;101058.53;3578834;40;20084;-68
2021/06/02 05:31:25;;;;;;;3.72;2.50;;;;;;;19.42;28.83;101064.31;3576302;40;20060;-68
2021/06/02 05:34:48;;;;;;;4.97;2.60;;;;;;;19.62;28.70;101071.09;3572433;40;20061;-68
2021/06/02 05:38:01;;;;;;;3.50;2.30;;;;;;;19.82;28.40;101065.88;3572725;40;20131;-68
2021/06/02 05:41:09;;;;;;;4.50;2.42;;;;;;;19.99;27.88;101061.91;3577246;40;20131;-68
2021/06/02 05:44:29;;;;;;;4.00;2.50;;;;;;;20.14;27.65;101064.69;3567688;40;20160;-67
2021/06/02 05:47:40;;;;;;;4.55;2.78;;;;;;;20.24;27.85;101068.94;3583713;40;20056;-68
2021/06/02 05:50:53;;;;;;;4.25;2.60;;;;;;;20.37;27.50;101075.75;3574228;40;20061;-68
2021/06/02 05:54:08;;;;;;;3.78;2.20;;;;;;;20.54;27.33;101077.28;3567685;40;20054;-68
2021/06/02 05:57:11;;;;;;;5.13;2.40;;;;;;;20.64;26.81;101080.63;3573521;40;20048;-68
2021/06/02 06:00:40;;;;;;;4.00;2.50;;;;;;;20.66;27.42;101082.16;3578418;40;20120;-68
2021/06/02 06:04:09;;;;;;;5.20;2.67;;;;;;;20.79;26.89;101072.25;3556166;40;20052;-68
2021/06/02 06:07:01;;;;;;;4.20;2.30;;;;;;;20.93;26.94;101079.75;3544966;40;20058;-68
2021/06/02 06:10:06;;;;;;;5.00;2.35;;;;;;;21.04;26.75;101085.66;3567202;40;20300;-68
2021/06/02 06:13:17;;;;;;;4.47;2.15;;;;;;;21.10;26.88;101078.44;3569640;40;20047;-68
2021/06/02 06:16:07;;;;;;;4.43;2.30;;;;;;;21.20;26.35;101070.66;3580127;40;20270;-68
2021/06/02 06:19:25;;;;;;;3.38;2.10;;;;;;;21.27;26.08;101073.50;3583913;40;20067;-68
2021/06/02 06:22:21;;;;;;;4.32;2.50;;;;;;;21.36;26.57;101063.97;3574536;40;20049;-68
2021/06/02 06:25:11;;;;;;;4.07;2.00;;;;;;;21.40;26.45;101063.41;3577773;40;20166;-68
2021/06/02 06:28:06;;;;;;;4.05;2.35;;;;;;;21.47;26.11;101059.81;3578225;40;20061;-68
2021/06/02 06:30:54;;;;;;;3.58;2.05;;;;;;;21.48;26.42;101059.63;3577267;40;20053;-68
2021/06/02 06:33:44;;;;;;;4.55;2.00;;;;;;;21.56;26.45;101059.50;3568570;40;20061;-68
2021/06/02 06:36:33;;;;;;;3.33;2.05;;;;;;;21.63;26.05;101063.22;3577590;40;20051;-68
2021/06/02 06:39:35;;;;;;;3.22;2.03;;;;;;;21.71;25.50;101065.00;3578008;40;20061;-68
2021/06/02 06:42:25;;;;;;;3.92;2.20;;;;;;;21.74;26.21;101053.44;3577424;40;20057;-68
2021/06/02 06:45:16;;;;;;;3.78;2.08;;;;;;;21.82;25.96;101053.28;3577600;40;20119;-68
2021/06/02 06:48:10;;;;;;;3.80;2.20;;;;;;;21.93;25.73;101066.66;3576110;40;20290;-68
2021/06/02 06:51:01;;;;;;;3.92;2.38;;;;;;;22.01;25.72;101057.28;3573880;40;20056;-68
2021/06/02 06:53:50;;;;;;;3.58;2.00;;;;;;;22.09;26.14;101059.94;3577800;40;20424;-68
2021/06/02 06:56:41;;;;;;;3.75;2.00;;;;;;;22.21;25.42;101065.84;3578446;40;20137;-67
2021/06/02 06:59:30;;;;;;;4.72;2.28;;;;;;;22.29;25.82;101069.34;3578534;40;20049;-69
2021/06/02 07:02:18;;;;;;;4.40;2.47;;;;;;;22.38;25.22;101061.66;3581104;40;20060;-68
2021/06/02 07:05:07;;;;;;;3.63;2.25;;;;;;;22.47;25.35;101066.88;3576626;40;20065;-68
2021/06/02 07:07:56;;;;;;;4.10;2.67;;;;;;;22.56;25.13;101064.78;3569882;40;20089;-68
2021/06/02 07:10:43;;;;;;;5.78;2.40;;;;;;;22.65;25.43;101071.88;3578051;40;20102;-68
2021/06/02 07:13:30;;;;;;;3.80;2.30;;;;;;;22.77;24.84;101072.16;3589528;40;20041;-68
2021/06/02 07:16:01;;;;;;;5.53;2.78;;;;;;;22.85;24.59;101069.22;3583564;40;20089;-68
2021/06/02 07:18:32;;;;;;;5.70;2.67;;;;;;;22.94;25.30;101063.25;3584795;40;20314;-72
2021/06/02 07:21:03;;;;;;;3.53;2.40;;;;;;;23.01;25.32;101070.78;3578012;40;20302;-72
2021/06/02 07:23:32;;;;;;;4.00;2.35;;;;;;;23.11;24.50;101066.53;3578976;40;20150;-72
2021/06/02 07:26:01;;;;;;;3.80;2.50;;;;;;;23.22;24.76;101076.25;3579155;40;20041;-72
2021/06/02 07:28:37;;;;;;;4.30;2.40;;;;;;;23.32;24.50;101069.16;3579485;40;20061;-72
2021/06/02 07:31:06;;;;;;;4.38;2.22;;;;;;;23.43;25.00;101072.41;3579172;40;20048;-72
2021/06/02 07:33:35;;;;;;;5.47;2.63;;;;;;;23.55;24.75;101077.16;3577720;40;20056;-72
2021/06/02 07:36:05;;;;;;;4.55;2.60;;;;;;;23.65;24.88;101077.63;3578180;40;20085;-72
2021/06/02 07:38:34;;;;;;;4.03;2.55;;;;;;;23.75;24.46;101073.56;3579277;40;20045;-72
2021/06/02 07:41:02;;;;;;;4.45;2.38;;;;;;;23.87;24.38;101078.28;3578119;40;20065;-72
2021/06/02 07:43:31;;;;;;;4.25;2.80;;;;;;;23.97;24.44;101075.91;3579420;40;20055;-72
2021/06/02 07:46:02;;;;;;;3.50;2.50;;;;;;;24.10;24.31;101075.09;3583742;40;20063;-72
2021/06/02 07:48:39;;;;;;;4.47;2.83;;;;;;;24.20;23.88;101072.72;3578420;40;20060;-72
2021/06/02 07:51:07;;;;;;;4.43;2.50;;;;;;;24.30;23.95;101072.25;3572538;40;20089;-72
2021/06/02 07:53:36;;;;;;;3.53;2.00;;;;;;;24.40;24.16;101062.34;3580601;40;20052;-72
2021/06/02 07:56:05;;;;;;;4.00;2.50;;;;;;;24.52;23.64;101061.69;3577613;40;20389;-72
2021/06/02 07:58:33;;;;;;;3.65;2.30;;;;;;;24.60;23.68;101059.50;3582935;40;20049;-72
2021/06/02 08:01:04;;;;;;;4.50;2.10;;;;;;;24.73;23.88;101056.66;3580197;40;20053;-72
2021/06/02 08:03:31;;;;;;;3.78;2.17;;;;;;;24.80;23.47;101051.91;3579122;40;20052;-71
2021/06/02 08:05:59;;;;;;;3.08;2.13;;;;;;;24.92;23.48;101054.88;3580239;40;20048;-71
2021/06/02 08:08:28;;;;;;;4.07;2.38;;;;;;;25.01;23.38;101056.34;3580852;40;20072;-72
2021/06/02 08:10:56;;;;;;;2.78;2.00;;;;;;;25.11;23.38;101050.28;3582681;40;20064;-71
2021/06/02 08:13:25;;;;;;;4.03;2.50;;;;;;;25.22;23.02;101052.34;3578871;40;20116;-72
2021/06/02 08:15:53;;;;;;;3.55;2.30;;;;;;;25.31;22.97;101050.16;3581216;40;20048;-72
2021/06/02 08:18:26;;;;;;;5.22;2.50;;;;;;;25.42;22.73;101055.06;3573297;40;20061;-72
2021/06/02 08:20:58;;;;;;;3.63;2.00;;;;;;;25.52;23.20;101056.28;3577315;40;20059;-71
2021/06/02 08:23:26;;;;;;;4.18;2.30;;;;;;;25.61;22.67;101051.22;3573542;40;20139;-72
2021/06/02 08:25:54;;;;;;;3.65;2.00;;;;;;;25.71;22.69;101054.38;3577066;40;20081;-72
2021/06/02 08:28:23;;;;;;;2.78;2.00;;;;;;;25.80;22.74;101055.84;3577768;40;20049;-72
2021/06/02 08:31:01;;;;;;;3.63;2.20;;;;;;;25.91;22.56;101055.13;3578567;40;20134;-72
2021/06/02 08:33:30;;;;;;;3.65;2.10;;;;;;;26.05;22.06;101049.38;3581207;40;20081;-72
2021/06/02 08:36:02;;;;;;;4.63;2.28;;;;;;;26.14;22.21;101057.28;3580779;40;20144;-72
2021/06/02 08:38:30;;;;;;;3.20;2.05;;;;;;;26.23;22.10;101061.50;3575229;40;20049;-73
2021/06/02 08:40:59;;;;;;;3.80;2.45;;;;;;;26.35;21.91;101060.75;3577779;40;20056;-73
2021/06/02 08:43:32;;;;;;;4.10;2.30;;;;;;;26.42;21.73;101056.81;3578948;40;20035;-73
2021/06/02 08:46:01;;;;;;;3.80;2.30;;;;;;;26.52;21.60;101059.91;3578253;40;20307;-72
2021/06/02 08:48:30;;;;;;;3.97;2.08;;;;;;;26.61;21.72;101063.28;3578013;40;20309;-73
2021/06/02 08:50:58;;;;;;;2.63;1.83;;;;;;;26.71;21.44;101062.72;3580670;40;20061;-72
2021/06/02 08:53:28;;;;;;;3.95;2.00;;;;;;;26.79;21.63;101066.09;3583111;40;20048;-72
2021/06/02 08:55:56;;;;;;;3.90;2.20;;;;;;;26.89;20.99;101062.72;3574675;40;20061;-72
2021/06/02 08:58:26;;;;;;;3.38;2.20;;;;;;;26.96;20.74;101058.78;3583254;40;20052;-72
2021/06/02 09:00:54;;;;;;;3.38;2.20;;;;;;;27.04;20.71;101066.88;3578408;40;20593;-72
2021/06/02 09:03:23;;;;;;;3.50;2.28;;;;;;;27.12;20.87;101065.69;3578823;40;20056;-72
2021/06/02 09:05:55;;;;;;;3.92;2.20;;;;;;;27.21;20.33;101064.25;3578762;40;20130;-72
2021/06/02 09:08:27;;;;;;;3.45;2.10;;;;;;;27.29;20.33;101071.50;3578571;40;20056;-72
2021/06/02 09:11:11;;;;;;;2.90;1.88;;;;;;;27.38;20.54;101064.44;3585703;40;20143;-73
2021/06/02 09:13:39;;;;;;;3.10;1.92;;;;;;;27.42;20.52;101062.88;3572858;40;20065;-72
2021/06/02 09:16:17;;;;;;;3.30;2.20;;;;;;;27.53;20.23;101061.22;3573607;40;20056;-72
2021/06/02 09:18:48;;;;;;;3.83;1.83;;;;;;;27.57;20.55;101068.09;3576618;40;20050;-71
2021/06/02 09:21:18;;;;;;;2.63;1.65;;;;;;;27.65;20.27;101062.97;3576701;40;20060;-72
2021/06/02 09:23:46;;;;;;;3.58;1.95;;;;;;;27.70;20.07;101059.44;3574972;40;20076;-72
2021/06/02 09:26:21;;;;;;;3.92;1.88;;;;;;;27.79;19.82;101060.81;3579143;40;20291;-72
2021/06/02 09:28:57;;;;;;;2.53;1.55;;;;;;;27.88;19.19;101067.78;3578218;40;20063;-73
2021/06/02 09:31:28;;;;;;;3.85;2.00;;;;;;;27.93;19.34;101059.47;3582822;40;20142;-72
2021/06/02 09:33:58;;;;;;;2.57;1.57;;;;;;;27.97;19.72;101060.72;3578869;40;20125;-73
2021/06/02 09:36:32;;;;;;;2.63;1.63;;;;;;;28.06;18.71;101055.63;3577914;40;20292;-74
2021/06/02 09:39:02;;;;;;;2.95;1.90;;;;;;;28.11;19.02;101052.91;3577863;40;20061;-72
2021/06/02 09:41:37;;;;;;;2.65;1.48;;;;;;;28.15;18.71;101057.81;3580398;40;20394;-73
2021/06/02 09:44:18;;;;;;;2.20;1.60;;;;;;;28.24;18.14;101057.47;3577521;40;20093;-73
2021/06/02 09:47:00;;;;;;;3.40;1.70;;;;;;;28.28;18.38;101058.66;3578393;40;20057;-73
2021/06/02 09:49:47;;;;;;;2.92;1.77;;;;;;;28.32;18.28;101055.13;3579105;40;20057;-73
2021/06/02 09:52:17;;;;;;;2.88;1.70;;;;;;;28.36;18.64;101055.47;3578193;40;20145;-72
2021/06/02 09:54:46;;;;;;;2.50;1.70;;;;;;;28.41;18.61;101058.44;3572748;40;20449;-71
2021/06/02 09:57:15;;;;;;;2.67;1.55;;;;;;;28.47;18.17;101055.47;3576234;40;20059;-75
2021/06/02 09:59:56;;;;;;;2.83;1.80;;;;;;;28.53;17.53;101046.06;3578046;40;20049;-72
2021/06/02 10:02:25;;;;;;;;;;;;;;;28.25;18.73;101050.69;3582318;40;20049;-72
2021/06/02 10:05:05;;;;;;;2.17;1.20;;;;;;;28.60;18.07;101048.75;3578648;40;19933;-72
2021/06/02 10:07:43;;;;;;;2.30;1.38;;;;;;;28.68;17.60;101050.31;3580042;40;20133;-75
2021/06/02 10:10:13;;;;;;;2.45;1.63;;;;;;;28.72;17.51;101049.59;3578886;40;20055;-73
2021/06/02 10:12:58;;;;;;;2.40;1.65;;;;;;;28.78;16.54;101059.00;3576278;40;20061;-71
2021/06/02 10:15:31;;;;;;;2.53;1.60;;;;;;;28.81;17.23;101050.06;3581083;40;20103;-73
2021/06/02 10:18:02;;;;;;;3.10;2.10;;;;;;;28.83;17.32;101059.09;3578207;40;20130;-75
2021/06/02 10:20:57;;;;;;;3.33;1.80;;;;;;;28.85;16.76;101054.94;3577697;40;20317;-72
2021/06/02 10:23:47;;;;;;;2.40;1.60;;;;;;;28.87;17.10;101052.72;3577372;40;20053;-70
2021/06/02 10:26:34;;;;;;;2.75;1.67;;;;;;;28.89;16.96;101052.50;3577419;40;20048;-71
2021/06/02 10:29:22;;;;;;;2.47;1.75;;;;;;;28.92;16.96;101046.34;3580878;40;20190;-70
2021/06/02 10:32:10;;;;;;;2.38;1.60;;;;;;;28.96;16.58;101043.91;3584933;40;20056;-71
2021/06/02 10:34:57;;;;;;;4.25;1.60;;;;;;;28.98;17.09;101044.50;3574642;40;20056;-71
2021/06/02 10:37:45;;;;;;;2.88;1.75;;;;;;;29.01;16.55;101046.81;3572264;40;20065;-71
2021/06/02 10:40:30;;;;;;;3.60;1.52;;;;;;;29.06;15.96;101046.97;3577589;40;20412;-71
2021/06/02 10:43:16;;;;;;;2.97;1.60;;;;;;;29.09;15.90;101052.06;3576810;40;20063;-70
2021/06/02 10:46:06;;;;;;;;;;;;;;;28.77;16.92;101038.44;3579777;40;20053;-71
2021/06/02 10:49:01;;;;;;;2.80;1.50;;;;;;;29.10;15.62;101043.38;3577260;40;20268;-71
2021/06/02 10:51:42;;;;;;;;;;;;;;;28.81;16.94;101039.66;3575749;40;20145;-71
2021/06/02 10:54:34;;;;;;;1.83;1.23;;;;;;;29.11;16.48;101042.28;3574009;40;20270;-71
2021/06/02 10:57:24;;;;;;;2.38;1.38;;;;;;;29.14;16.23;101053.06;3577238;40;20162;-72
2021/06/02 11:00:13;;;;;;;2.42;1.55;;;;;;;29.17;16.38;101048.84;3578138;40;20040;-72
2021/06/02 11:03:24;;;;;;;2.67;1.58;;;;;;;29.19;15.83;101044.69;3576840;40;20406;-71
2021/06/02 11:06:33;;;;;;;3.00;1.50;;;;;;;29.16;16.07;101052.78;3577065;40;20052;-76
2021/06/02 11:09:16;;;;;;;2.28;1.50;;;;;;;29.27;16.00;101040.59;3577781;40;20048;-71
2021/06/02 11:12:04;;;;;;;2.97;1.60;;;;;;;29.31;15.84;101043.78;3570453;40;20052;-72
2021/06/02 11:14:42;;;;;;;2.38;1.52;;;;;;;29.33;15.82;101039.59;3578038;40;20049;-71
2021/06/02 11:17:33;;;;;;;2.55;1.58;;;;;;;29.36;15.72;101029.78;3577258;40;20294;-70
2021/06/02 11:20:39;;;;;;;2.63;1.70;;;;;;;29.42;16.03;101028.75;3581331;40;20065;-72
2021/06/02 11:23:20;;;;;;;2.10;1.50;;;;;;;29.46;15.76;101025.19;3580006;40;20057;-72
2021/06/02 11:26:25;;;;;;;2.50;1.77;;;;;;;29.52;16.06;101027.00;3577585;40;20077;-72
2021/06/02 11:29:14;;;;;;;2.55;1.70;;;;;;;29.54;15.52;101029.59;3581596;40;20067;-70
2021/06/02 11:32:14;;;;;;;3.03;1.70;;;;;;;29.59;15.52;101026.84;3572375;40;20065;-74
2021/06/02 11:35:05;;;;;;;2.42;1.80;;;;;;;29.58;15.40;101022.31;3573480;40;20313;-73
2021/06/02 11:37:53;;;;;;;3.05;1.70;;;;;;;29.57;15.54;101027.09;3575326;40;20037;-70
2021/06/02 11:40:42;;;;;;;3.33;1.60;;;;;;;29.60;15.53;101043.53;3574851;40;20057;-72
2021/06/02 11:43:29;;;;;;;2.28;1.58;;;;;;;29.63;15.13;101028.06;3577053;40;20391;-73
2021/06/02 11:46:18;;;;;;;3.13;1.60;;;;;;;29.64;14.87;101024.97;3579017;40;20061;-79
2021/06/02 11:49:25;;;;;;;2.75;1.70;;;;;;;29.67;15.14;101026.44;3575872;40;20080;-78
2021/06/02 11:52:14;;;;;;;2.00;1.50;;;;;;;29.67;14.91;101024.47;3569646;40;20045;-74
2021/06/02 11:55:05;;;;;;;3.20;1.63;;;;;;;29.67;15.01;101024.47;3578034;40;20472;-72
2021/06/02 11:57:53;;;;;;;2.88;1.60;;;;;;;29.67;14.64;101021.66;3576822;40;20060;-73
2021/06/02 12:00:41;;;;;;;2.42;1.67;;;;;;;29.68;14.76;101025.31;3576499;40;20390;-75
2021/06/02 12:03:29;;;;;;;3.33;1.60;;;;;;;29.68;14.82;101025.31;3577830;40;20055;-77
2021/06/02 12:06:28;;;;;;;2.50;1.42;;;;;;;29.73;14.18;101036.69;3575589;40;20060;-74
2021/06/02 12:09:15;;;;;;;2.70;1.60;;;;;;;29.70;14.22;101027.91;3576123;40;20409;-75
2021/06/02 12:12:04;;;;;;;2.15;1.33;;;;;;;29.71;14.28;101019.19;3578019;40;20056;-72
2021/06/02 12:14:52;;;;;;;3.22;1.45;;;;;;;29.72;14.24;101023.72;3576261;40;20077;-72
2021/06/02 12:17:41;;;;;;;2.30;1.40;;;;;;;29.70;14.36;101019.44;3577281;40;20396;-75
2021/06/02 12:20:29;;;;;;;2.17;1.17;;;;;;;29.69;14.09;101029.84;3577475;40;20066;-73
2021/06/02 12:23:18;;;;;;;1.83;1.35;;;;;;;29.72;13.97;101029.34;3574713;40;20052;-73
2021/06/02 12:26:17;;;;;;;2.28;1.33;;;;;;;29.73;13.92;101033.03;3572541;40;20049;-73
2021/06/02 12:29:07;;;;;;;2.17;1.35;;;;;;;29.71;14.22;101023.97;3576301;40;20310;-73
2021/06/02 12:31:58;;;;;;;1.83;1.20;;;;;;;29.70;13.99;101025.06;3577120;40;20048;-73
2021/06/02 12:34:46;;;;;;;3.03;1.45;;;;;;;29.71;13.82;101023.97;3575487;40;20357;-74
2021/06/02 12:37:34;;;;;;;2.22;1.40;;;;;;;29.73;14.14;101028.22;3578147;40;20072;-72
2021/06/02 12:40:23;;;;;;;2.15;1.40;;;;;;;29.76;13.42;101030.53;3576480;40;20298;-73
2021/06/02 12:43:15;;;;;;;1.83;1.30;;;;;;;29.75;13.49;101030.78;3575719;40;20417;-75
2021/06/02 12:45:45;;;;;;;2.17;1.38;;;;;;;29.74;13.66;101034.72;3578135;40;20110;-74
2021/06/02 12:48:16;;;;;;;2.55;1.40;;;;;;;29.75;13.14;101016.69;3576103;40;20068;-74
2021/06/02 12:50:46;;;;;;;1.55;1.00;;;;;;;29.70;13.48;101016.63;3577673;40;20060;-72
2021/06/02 12:53:16;;;;;;;1.98;1.20;;;;;;;29.71;13.51;101007.91;3577495;40;20057;-74
2021/06/02 12:55:49;;;;;;;2.67;1.40;;;;;;;29.72;13.22;101009.63;3577180;40;20425;-73
2021/06/02 12:58:18;;;;;;;2.88;1.60;;;;;;;29.70;13.65;101017.47;3576092;40;20049;-74